createdAt,value
2023-01-15T00:01:20.544Z,97100.03
2023-01-15T00:03:25.923Z,97109.19
2023-01-15T00:05:31.411Z,97095.75
2023-01-15T00:07:37.049Z,97092.38
2023-01-15T00:09:41.997Z,97088.94
2023-01-15T00:11:49.532Z,97094.94
2023-01-15T00:13:54.624Z,97067.38
2023-01-15T00:16:07.148Z,97070.66
2023-01-15T00:18:12.863Z,97062.13
2023-01-15T00:20:17.929Z,97058.81
2023-01-15T00:22:23.150Z,97076.31
2023-01-15T00:24:40.707Z,97070.34
2023-01-15T00:27:01.206Z,97075.50
2023-01-15T00:29:06.837Z,97060.44
2023-01-15T00:31:17.245Z,97061.25
2023-01-15T00:33:22.609Z,97059.56
2023-01-15T00:35:28.331Z,97053.66
2023-01-15T00:37:33.293Z,97063.38
2023-01-15T00:39:38.286Z,97058.94
2023-01-15T00:41:44.069Z,97057.47
2023-01-15T00:43:53.016Z,97049.22
2023-01-15T00:45:58.008Z,97042.31
2023-01-15T00:48:02.963Z,97034.84
2023-01-15T00:50:12.039Z,97017.38
2023-01-15T00:52:17.894Z,97028.06
2023-01-15T00:54:22.871Z,97028.06
2023-01-15T00:56:28.113Z,97033.03
2023-01-15T00:58:33.525Z,97013.00
2023-01-15T01:00:41.103Z,97019.78
2023-01-15T01:02:46.541Z,97029.69
2023-01-15T01:04:51.636Z,97016.22
2023-01-15T01:06:57.011Z,97028.06
2023-01-15T01:09:02.760Z,97032.22
2023-01-15T01:11:13.005Z,97018.97
2023-01-15T01:13:18.224Z,97023.16
2023-01-15T01:15:23.796Z,97003.88
2023-01-15T01:17:31.832Z,97003.06
2023-01-15T01:19:36.806Z,97010.72
2023-01-15T01:21:44.821Z,97007.16
2023-01-15T01:23:50.687Z,97017.19
2023-01-15T01:25:55.644Z,97013.13
2023-01-15T01:28:01.593Z,97024.81
2023-01-15T01:30:08.423Z,97027.19
2023-01-15T01:32:14.419Z,97027.25
2023-01-15T01:34:22.295Z,97033.09
2023-01-15T01:36:33.563Z,97033.72
2023-01-15T01:38:39.008Z,97040.22
2023-01-15T01:40:44.099Z,97034.38
2023-01-15T01:42:49.476Z,97031.16
2023-01-15T01:45:24.961Z,97037.94
2023-01-15T01:47:34.358Z,97031.16
2023-01-15T01:49:43.796Z,97037.81
2023-01-15T01:51:55.681Z,97031.00
2023-01-15T01:54:02.487Z,97030.09
2023-01-15T01:56:11.620Z,97032.44
2023-01-15T01:58:17.590Z,97035.84
2023-01-15T02:00:23.951Z,97040.88
2023-01-15T02:02:31.260Z,97041.69
2023-01-15T02:04:37.871Z,97070.91
2023-01-15T02:06:46.146Z,97087.91
2023-01-15T02:08:51.692Z,97084.97
2023-01-15T02:10:59.253Z,97086.31
2023-01-15T02:13:15.773Z,97093.28
2023-01-15T02:15:31.874Z,97086.84
2023-01-15T02:17:44.461Z,97090.38
2023-01-15T02:19:59.386Z,97101.72
2023-01-15T02:22:18.458Z,97090.28
2023-01-15T02:24:34.527Z,97098.97
2023-01-15T02:27:06.862Z,97098.22
2023-01-15T02:29:20.803Z,97101.28
2023-01-15T02:31:33.253Z,97104.66
2023-01-15T02:33:43.616Z,97108.19
2023-01-15T02:35:53.515Z,97107.56
2023-01-15T02:38:03.796Z,97123.88
2023-01-15T02:40:13.565Z,97134.88
2023-01-15T02:42:26.124Z,97130.94
2023-01-15T02:44:35.049Z,97136.44
2023-01-15T02:46:42.325Z,97144.34
2023-01-15T02:48:55.085Z,97149.91
2023-01-15T02:51:10.244Z,97147.09
2023-01-15T02:53:23.648Z,97160.69
2023-01-15T02:55:33.787Z,97167.88
2023-01-15T02:57:44.832Z,97159.31
2023-01-15T02:59:54.878Z,97162.34
2023-01-15T03:02:04.234Z,97164.38
2023-01-15T03:04:16.607Z,97172.75
2023-01-15T03:06:30.098Z,97172.25
2023-01-15T03:08:35.300Z,97179.09
2023-01-15T03:10:49.646Z,97180.25
2023-01-15T03:13:08.474Z,97196.28
2023-01-15T03:15:44.280Z,97177.44
2023-01-15T03:17:54.362Z,97192.88
2023-01-15T03:20:05.718Z,97192.03
2023-01-15T03:22:19.783Z,97193.88
2023-01-15T03:24:34.580Z,97200.72
2023-01-15T03:26:39.577Z,97210.72
2023-01-15T03:28:48.363Z,97215.84
2023-01-15T03:30:53.408Z,97205.16
2023-01-15T03:32:59.299Z,97197.69
2023-01-15T03:35:04.780Z,97204.53
2023-01-15T03:37:10.509Z,97208.81
2023-01-15T03:39:16.273Z,97201.56
2023-01-15T03:41:52.592Z,97204.97
2023-01-15T03:44:11.765Z,97212.28
2023-01-15T03:46:34.371Z,97214.63
2023-01-15T03:48:48.797Z,97195.84
2023-01-15T03:51:01.348Z,97190.97
2023-01-15T03:53:17.280Z,97196.78
2023-01-15T03:55:40.748Z,97200.00
2023-01-15T03:57:54.129Z,97211.56
2023-01-15T04:00:06.444Z,97208.47
2023-01-15T04:02:23.680Z,97206.84
2023-01-15T04:04:31.412Z,97208.41
2023-01-15T04:06:42.129Z,97209.97
2023-01-15T04:08:50.482Z,97216.63
2023-01-15T04:10:58.588Z,97232.50
2023-01-15T04:13:08.876Z,97244.03
2023-01-15T04:15:16.939Z,97243.09
2023-01-15T04:17:22.277Z,97238.28
2023-01-15T04:19:28.066Z,97234.97
2023-01-15T04:21:37.465Z,97241.63
2023-01-15T04:23:42.863Z,97248.63
2023-01-15T04:25:47.834Z,97252.22
2023-01-15T04:27:53.226Z,97249.16
2023-01-15T04:29:59.052Z,97254.44
2023-01-15T04:32:08.115Z,97253.19
2023-01-15T04:34:13.124Z,97255.88
2023-01-15T04:36:18.195Z,97268.66
2023-01-15T04:38:23.122Z,97276.88
2023-01-15T04:40:42.341Z,97273.81
2023-01-15T04:42:59.801Z,97278.44
2023-01-15T04:45:04.735Z,97280.22
2023-01-15T04:47:12.911Z,97285.41
2023-01-15T04:49:20.406Z,97294.81
2023-01-15T04:51:25.455Z,97305.03
2023-01-15T04:53:31.417Z,97302.78
2023-01-15T04:55:36.757Z,97302.69
2023-01-15T04:57:41.663Z,97301.19
2023-01-15T04:59:47.521Z,97302.06
2023-01-15T05:02:03.955Z,97303.59
2023-01-15T05:04:13.670Z,97319.50
2023-01-15T05:06:18.714Z,97321.47
2023-01-15T05:08:24.106Z,97316.75
2023-01-15T05:10:29.007Z,97314.81
2023-01-15T05:12:34.282Z,97305.06
2023-01-15T05:14:39.228Z,97314.44
2023-01-15T05:16:44.762Z,97299.50
2023-01-15T05:18:51.050Z,97296.31
2023-01-15T05:20:58.800Z,97296.31
2023-01-15T05:23:03.696Z,97303.00
2023-01-15T05:25:09.894Z,97292.97
2023-01-15T05:27:15.236Z,97293.03
2023-01-15T05:29:20.207Z,97288.94
2023-01-15T05:31:27.421Z,97294.81
2023-01-15T05:33:32.375Z,97308.31
2023-01-15T05:35:38.111Z,97307.59
2023-01-15T05:37:46.461Z,97303.34
2023-01-15T05:39:51.411Z,97303.34
2023-01-15T05:41:56.633Z,97298.34
2023-01-15T05:44:05.417Z,97296.66
2023-01-15T05:46:10.381Z,97298.47
2023-01-15T05:48:15.297Z,97300.88
2023-01-15T05:50:20.553Z,97301.69
2023-01-15T05:52:25.436Z,97296.66
2023-01-15T05:54:35.971Z,97304.97
2023-01-15T05:56:41.877Z,97306.59
2023-01-15T05:58:46.741Z,97313.28
2023-01-15T06:00:51.964Z,97310.81
2023-01-15T06:02:57.392Z,97300.94
2023-01-15T06:05:02.626Z,97313.38
2023-01-15T06:07:07.933Z,97307.56
2023-01-15T06:09:13.336Z,97306.81
2023-01-15T06:11:21.451Z,97315.19
2023-01-15T06:13:26.620Z,97323.56
2023-01-15T06:15:31.485Z,97331.91
2023-01-15T06:17:37.270Z,97317.78
2023-01-15T06:19:42.939Z,97325.28
2023-01-15T06:21:49.035Z,97328.47
2023-01-15T06:23:56.623Z,97320.16
2023-01-15T06:26:04.169Z,97308.63
2023-01-15T06:28:13.568Z,97316.97
2023-01-15T06:30:19.949Z,97326.81
2023-01-15T06:32:24.853Z,97321.03
2023-01-15T06:34:30.629Z,97326.91
2023-01-15T06:36:35.545Z,97324.38
2023-01-15T06:38:41.226Z,97324.47
2023-01-15T06:40:46.550Z,97328.56
2023-01-15T06:43:04.411Z,97328.59
2023-01-15T06:45:26.873Z,97325.28
2023-01-15T06:47:31.807Z,97336.09
2023-01-15T06:49:40.040Z,97345.28
2023-01-15T06:51:44.948Z,97351.94
2023-01-15T06:53:50.845Z,97354.38
2023-01-15T06:55:56.019Z,97350.31
2023-01-15T06:58:00.904Z,97351.16
2023-01-15T07:00:06.933Z,97348.63
2023-01-15T07:02:15.477Z,97339.53
2023-01-15T07:04:20.790Z,97349.56
2023-01-15T07:06:26.566Z,97363.78
2023-01-15T07:08:32.228Z,97374.66
2023-01-15T07:10:37.835Z,97367.97
2023-01-15T07:12:43.115Z,97380.31
2023-01-15T07:14:48.558Z,97381.13
2023-01-15T07:16:55.057Z,97393.72
2023-01-15T07:19:02.693Z,97387.13
2023-01-15T07:21:07.885Z,97385.47
2023-01-15T07:23:13.730Z,97383.13
2023-01-15T07:25:20.437Z,97378.97
2023-01-15T07:27:26.482Z,97384.00
2023-01-15T07:29:31.817Z,97399.78
2023-01-15T07:31:36.887Z,97378.94
2023-01-15T07:33:41.952Z,97395.47
2023-01-15T07:35:49.451Z,97395.47
2023-01-15T07:37:55.290Z,97401.38
2023-01-15T07:40:00.640Z,97403.66
2023-01-15T07:42:18.447Z,97402.84
2023-01-15T07:44:36.550Z,97407.03
2023-01-15T07:46:54.597Z,97406.88
2023-01-15T07:49:27.059Z,97409.34
2023-01-15T07:51:34.541Z,97410.22
2023-01-15T07:53:39.736Z,97430.09
2023-01-15T07:55:44.653Z,97428.53
2023-01-15T07:57:49.691Z,97435.94
2023-01-15T07:59:54.621Z,97426.88
2023-01-15T08:01:59.663Z,97443.47
2023-01-15T08:04:04.678Z,97443.66
2023-01-15T08:06:10.468Z,97447.03
2023-01-15T08:08:20.971Z,97443.72
2023-01-15T08:10:26.643Z,97443.72
2023-01-15T08:12:44.058Z,97447.03
2023-01-15T08:15:01.978Z,97452.91
2023-01-15T08:17:07.058Z,97456.13
2023-01-15T08:19:11.967Z,97455.38
2023-01-15T08:21:18.116Z,97462.91
2023-01-15T08:23:26.211Z,97457.00
2023-01-15T08:25:31.382Z,97461.94
2023-01-15T08:27:36.353Z,97470.31
2023-01-15T08:29:41.247Z,97463.69
2023-01-15T08:31:46.153Z,97475.50
2023-01-15T08:33:51.563Z,97485.44
2023-01-15T08:35:57.184Z,97483.94
2023-01-15T08:38:02.077Z,97486.41
2023-01-15T08:40:14.135Z,97483.06
2023-01-15T08:42:19.120Z,97485.66
2023-01-15T08:44:24.521Z,97482.25
2023-01-15T08:46:29.493Z,97482.34
2023-01-15T08:48:36.420Z,97489.84
2023-01-15T08:50:41.413Z,97485.78
2023-01-15T08:52:46.300Z,97489.09
2023-01-15T08:54:51.189Z,97484.03
2023-01-15T08:56:58.680Z,97491.66
2023-01-15T08:59:08.472Z,97491.59
2023-01-15T09:01:16.474Z,97495.75
2023-01-15T09:03:21.458Z,97495.88
2023-01-15T09:05:28.115Z,97500.91
2023-01-15T09:07:35.551Z,97499.22
2023-01-15T09:09:40.511Z,97495.25
2023-01-15T09:11:45.811Z,97496.09
2023-01-15T09:13:54.514Z,97499.44
2023-01-15T09:16:03.123Z,97501.22
2023-01-15T09:18:10.731Z,97509.56
2023-01-15T09:20:17.165Z,97512.25
2023-01-15T09:22:22.254Z,97520.66
2023-01-15T09:24:27.626Z,97534.06
2023-01-15T09:26:35.792Z,97537.47
2023-01-15T09:28:40.703Z,97539.34
2023-01-15T09:30:48.281Z,97541.19
2023-01-15T09:32:53.589Z,97547.03
2023-01-15T09:34:58.756Z,97548.84
2023-01-15T09:37:04.004Z,97553.97
2023-01-15T09:39:09.760Z,97557.25
2023-01-15T09:41:29.738Z,97566.31
2023-01-15T09:43:51.102Z,97562.03
2023-01-15T09:46:04.637Z,97567.13
2023-01-15T09:48:29.983Z,97568.94
2023-01-15T09:50:51.402Z,97573.97
2023-01-15T09:53:13.336Z,97567.41
2023-01-15T09:55:23.144Z,97569.06
2023-01-15T09:57:30.906Z,97569.19
2023-01-15T09:59:40.513Z,97574.94
2023-01-15T10:01:50.255Z,97568.38
2023-01-15T10:04:02.778Z,97563.38
2023-01-15T10:06:16.349Z,97562.50
2023-01-15T10:08:27.209Z,97563.44
2023-01-15T10:10:41.711Z,97567.66
2023-01-15T10:12:50.672Z,97559.25
2023-01-15T10:15:04.160Z,97547.59
2023-01-15T10:17:30.254Z,97541.03
2023-01-15T10:19:44.421Z,97555.94
2023-01-15T10:21:59.209Z,97552.69
2023-01-15T10:24:09.607Z,97549.44
2023-01-15T10:26:26.117Z,97546.13
2023-01-15T10:28:34.983Z,97544.38
2023-01-15T10:30:49.596Z,97551.75
2023-01-15T10:33:02.707Z,97559.38
2023-01-15T10:35:27.217Z,97563.34
2023-01-15T10:37:42.316Z,97562.34
2023-01-15T10:39:59.837Z,97560.56
2023-01-15T10:42:19.576Z,97563.81
2023-01-15T10:44:31.719Z,97555.41
2023-01-15T10:46:40.920Z,97552.16
2023-01-15T10:48:53.081Z,97558.78
2023-01-15T10:51:01.781Z,97551.28
2023-01-15T10:53:14.711Z,97545.44
2023-01-15T10:55:27.560Z,97540.56
2023-01-15T10:57:49.847Z,97536.94
2023-01-15T11:00:02.426Z,97542.69
2023-01-15T11:02:32.126Z,97535.16
2023-01-15T11:04:39.764Z,97536.72
2023-01-15T11:06:45.766Z,97535.75
2023-01-15T11:09:12.110Z,97530.81
2023-01-15T11:11:44.842Z,97536.41
2023-01-15T11:14:12.204Z,97538.06
2023-01-15T11:16:31.125Z,97529.59
2023-01-15T11:18:54.302Z,97541.06
2023-01-15T11:21:02.892Z,97547.75
2023-01-15T11:23:13.702Z,97547.59
2023-01-15T11:25:31.074Z,97544.19
2023-01-15T11:27:38.524Z,97534.06
2023-01-15T11:29:46.527Z,97533.88
2023-01-15T11:31:51.402Z,97532.13
2023-01-15T11:34:05.082Z,97519.47
2023-01-15T11:36:25.491Z,97533.53
2023-01-15T11:38:33.054Z,97532.50
2023-01-15T11:40:38.084Z,97538.28
2023-01-15T11:43:02.106Z,97530.53
2023-01-15T11:45:33.327Z,97522.03
2023-01-15T11:47:50.750Z,97520.16
2023-01-15T11:50:09.608Z,97527.41
2023-01-15T11:52:24.522Z,97527.22
2023-01-15T11:54:30.195Z,97533.69
2023-01-15T11:56:37.936Z,97533.53
2023-01-15T11:58:47.986Z,97535.19
2023-01-15T12:00:55.967Z,97542.72
2023-01-15T12:03:06.660Z,97538.44
2023-01-15T12:05:20.845Z,97530.13
2023-01-15T12:07:29.397Z,97545.03
2023-01-15T12:09:50.853Z,97546.59
2023-01-15T12:12:17.452Z,97531.44
2023-01-15T12:14:53.431Z,97523.78
2023-01-15T12:17:07.314Z,97522.88
2023-01-15T12:19:23.040Z,97519.13
2023-01-15T12:22:00.914Z,97515.25
2023-01-15T12:24:36.465Z,97525.59
2023-01-15T12:26:55.122Z,97521.47
2023-01-15T12:29:09.039Z,97525.00
2023-01-15T12:31:19.301Z,97519.81
2023-01-15T12:33:39.998Z,97532.75
2023-01-15T12:35:49.574Z,97536.06
2023-01-15T12:38:00.907Z,97531.38
2023-01-15T12:40:25.079Z,97518.50
2023-01-15T12:42:45.389Z,97528.41
2023-01-15T12:45:04.810Z,97532.59
2023-01-15T12:47:18.675Z,97523.03
2023-01-15T12:49:35.604Z,97528.41
2023-01-15T12:51:54.588Z,97525.28
2023-01-15T12:54:06.316Z,97519.81
2023-01-15T12:56:23.978Z,97520.06
2023-01-15T12:58:43.921Z,97510.19
2023-01-15T13:00:54.502Z,97510.88
2023-01-15T13:03:18.269Z,97524.56
2023-01-15T13:05:31.570Z,97512.53
2023-01-15T13:07:43.965Z,97516.59
2023-01-15T13:09:59.198Z,97512.84
2023-01-15T13:12:15.687Z,97504.63
2023-01-15T13:14:22.307Z,97500.69
2023-01-15T13:16:43.734Z,97506.00
2023-01-15T13:19:13.909Z,97509.19
2023-01-15T13:21:22.074Z,97510.41
2023-01-15T13:23:47.338Z,97518.25
2023-01-15T13:26:14.335Z,97520.25
2023-01-15T13:28:40.795Z,97518.94
2023-01-15T13:33:30.580Z,97525.00
2023-01-15T13:35:42.131Z,97534.97
2023-01-15T13:37:54.329Z,97525.38
2023-01-15T13:40:04.093Z,97529.91
2023-01-15T13:42:22.633Z,97534.41
2023-01-15T13:44:39.622Z,97540.75
2023-01-15T13:46:45.160Z,97546.69
2023-01-15T13:48:53.551Z,97558.88
2023-01-15T13:51:00.748Z,97560.09
2023-01-15T13:53:16.866Z,97566.31
2023-01-15T13:55:31.396Z,97571.63
2023-01-15T13:57:40.448Z,97568.28
2023-01-15T13:59:50.930Z,97567.00
2023-01-15T14:01:56.044Z,97566.31
2023-01-15T14:04:09.123Z,97576.75
2023-01-15T14:06:14.051Z,97569.50
2023-01-15T14:08:19.946Z,97585.88
2023-01-15T14:10:39.491Z,97591.81
2023-01-15T14:12:56.217Z,97598.59
2023-01-15T14:15:40.983Z,97595.25
2023-01-15T14:18:08.872Z,97603.72
2023-01-15T14:20:59.660Z,97597.03
2023-01-15T14:23:27.537Z,97595.38
2023-01-15T14:25:50.056Z,97591.13
2023-01-15T14:28:12.239Z,97605.38
2023-01-15T14:30:42.638Z,97602.03
2023-01-15T14:33:04.131Z,97601.78
2023-01-15T14:35:17.253Z,97602.03
2023-01-15T14:37:30.174Z,97606.50
2023-01-15T14:39:49.230Z,97607.50
2023-01-15T14:42:14.427Z,97617.44
2023-01-15T14:44:20.343Z,97609.06
2023-01-15T14:46:37.929Z,97618.16
2023-01-15T14:48:43.959Z,97625.66
2023-01-15T14:50:54.678Z,97630.66
2023-01-15T14:53:08.421Z,97618.97
2023-01-15T14:55:16.189Z,97628.13
2023-01-15T14:57:23.380Z,97631.47
2023-01-15T14:59:37.616Z,97631.47
2023-01-15T15:01:55.199Z,97638.94
2023-01-15T15:04:07.557Z,97633.94
2023-01-15T15:06:17.139Z,97653.94
2023-01-15T15:08:23.752Z,97641.47
2023-01-15T15:10:36.785Z,97653.09
2023-01-15T15:12:43.560Z,97654.84
2023-01-15T15:14:55.828Z,97658.94
2023-01-15T15:17:07.753Z,97656.50
2023-01-15T15:19:19.663Z,97657.31
2023-01-15T15:21:29.864Z,97661.50
2023-01-15T15:23:43.124Z,97655.69
2023-01-15T15:26:00.247Z,97660.78
2023-01-15T15:28:07.841Z,97666.47
2023-01-15T15:30:17.176Z,97660.78
2023-01-15T15:32:27.660Z,97659.16
2023-01-15T15:34:38.144Z,97661.63
2023-01-15T15:36:43.462Z,97665.00
2023-01-15T15:38:56.419Z,97670.00
2023-01-15T15:41:05.017Z,97666.72
2023-01-15T15:43:30.869Z,97652.66
2023-01-15T15:45:48.666Z,97664.34
2023-01-15T15:48:13.705Z,97664.34
2023-01-15T15:50:31.457Z,97665.22
2023-01-15T15:52:38.390Z,97666.06
2023-01-15T15:54:43.756Z,97665.34
2023-01-15T15:57:00.739Z,97664.59
2023-01-15T15:59:07.080Z,97657.88
2023-01-15T16:01:15.907Z,97661.13
2023-01-15T16:03:27.231Z,97663.66
2023-01-15T16:05:33.283Z,97656.09
2023-01-15T16:07:38.258Z,97652.75
2023-01-15T16:09:45.249Z,97651.16
2023-01-15T16:11:52.734Z,97661.19
2023-01-15T16:14:01.407Z,97654.56
2023-01-15T16:16:08.313Z,97662.03
2023-01-15T16:18:26.696Z,97647.75
2023-01-15T16:20:32.410Z,97654.41
2023-01-15T16:22:38.061Z,97656.13
2023-01-15T16:24:42.985Z,97651.22
2023-01-15T16:26:52.277Z,97649.56
2023-01-15T16:29:02.269Z,97651.28
2023-01-15T16:31:08.984Z,97654.50
2023-01-15T16:33:19.964Z,97661.94
2023-01-15T16:35:28.626Z,97655.25
2023-01-15T16:37:36.025Z,97655.31
2023-01-15T16:39:47.208Z,97648.72
2023-01-15T16:41:53.856Z,97641.25
2023-01-15T16:44:03.100Z,97650.38
2023-01-15T16:46:18.769Z,97638.88
2023-01-15T16:48:36.826Z,97652.25
2023-01-15T16:50:45.011Z,97658.81
2023-01-15T16:52:55.395Z,97652.16
2023-01-15T16:55:01.686Z,97648.13
2023-01-15T16:57:08.854Z,97644.84
2023-01-15T16:59:20.811Z,97654.94
2023-01-15T17:01:41.831Z,97658.28
2023-01-15T17:03:47.270Z,97657.31
2023-01-15T17:05:59.815Z,97666.38
2023-01-15T17:08:05.001Z,97670.59
2023-01-15T17:10:27.690Z,97666.56
2023-01-15T17:12:35.789Z,97673.38
2023-01-15T17:14:41.121Z,97676.91
2023-01-15T17:16:46.118Z,97665.38
2023-01-15T17:18:53.097Z,97649.72
2023-01-15T17:21:02.437Z,97658.19
2023-01-15T17:23:15.515Z,97655.69
2023-01-15T17:25:27.405Z,97656.41
2023-01-15T17:27:33.563Z,97658.94
2023-01-15T17:29:38.562Z,97640.69
2023-01-15T17:31:45.858Z,97643.25
2023-01-15T17:33:51.496Z,97645.00
2023-01-15T17:36:00.665Z,97639.19
2023-01-15T17:38:11.925Z,97635.13
2023-01-15T17:40:17.590Z,97634.34
2023-01-15T17:42:23.302Z,97637.59
2023-01-15T17:44:28.317Z,97638.44
2023-01-15T17:46:33.702Z,97635.06
2023-01-15T17:48:40.067Z,97645.09
2023-01-15T17:50:45.865Z,97637.56
2023-01-15T17:52:52.207Z,97644.19
2023-01-15T17:55:12.910Z,97638.34
2023-01-15T17:57:30.711Z,97637.41
2023-01-15T17:59:48.159Z,97640.66
2023-01-15T18:02:06.106Z,97634.19
2023-01-15T18:04:32.497Z,97635.75
2023-01-15T18:06:37.715Z,97634.00
2023-01-15T18:08:44.415Z,97635.75
2023-01-15T18:10:52.001Z,97639.03
2023-01-15T18:12:57.293Z,97628.31
2023-01-15T18:15:02.550Z,97637.56
2023-01-15T18:17:07.609Z,97640.13
2023-01-15T18:19:13.823Z,97631.13
2023-01-15T18:21:18.872Z,97633.44
2023-01-15T18:23:26.012Z,97629.31
2023-01-15T18:25:31.073Z,97632.56
2023-01-15T18:27:43.394Z,97634.22
2023-01-15T18:29:48.502Z,97639.91
2023-01-15T18:31:53.453Z,97642.38
2023-01-15T18:33:58.401Z,97644.81
2023-01-15T18:36:04.761Z,97644.75
2023-01-15T18:38:09.839Z,97639.09
2023-01-15T18:40:16.063Z,97643.31
2023-01-15T18:42:33.400Z,97637.56
2023-01-15T18:44:53.291Z,97643.16
2023-01-15T18:47:01.892Z,97644.75
2023-01-15T18:49:07.141Z,97627.31
2023-01-15T18:51:13.019Z,97633.94
2023-01-15T18:53:18.308Z,97633.09
2023-01-15T18:55:25.705Z,97630.53
2023-01-15T18:57:30.946Z,97627.19
2023-01-15T18:59:35.916Z,97616.41
2023-01-15T19:01:44.743Z,97618.06
2023-01-15T19:03:49.650Z,97620.56
2023-01-15T19:05:54.527Z,97627.38
2023-01-15T19:07:59.537Z,97627.06
2023-01-15T19:10:04.372Z,97637.09
2023-01-15T19:12:10.308Z,97631.91
2023-01-15T19:14:27.710Z,97626.63
2023-01-15T19:16:46.304Z,97617.56
2023-01-15T19:18:55.222Z,97628.38
2023-01-15T19:21:00.093Z,97614.00
2023-01-15T19:23:05.755Z,97616.41
2023-01-15T19:25:11.884Z,97618.00
2023-01-15T19:27:17.637Z,97620.41
2023-01-15T19:29:22.673Z,97624.59
2023-01-15T19:31:40.458Z,97622.81
2023-01-15T19:33:45.397Z,97620.47
2023-01-15T19:35:55.898Z,97610.47
2023-01-15T19:38:00.840Z,97614.66
2023-01-15T19:40:07.220Z,97616.53
2023-01-15T19:42:27.801Z,97613.19
2023-01-15T19:44:50.946Z,97623.28
2023-01-15T19:47:08.288Z,97611.63
2023-01-15T19:49:31.240Z,97618.22
2023-01-15T19:51:50.929Z,97613.31
2023-01-15T19:53:55.766Z,97620.78
2023-01-15T19:56:00.630Z,97629.91
2023-01-15T19:58:08.210Z,97618.28
2023-01-15T20:00:17.224Z,97628.25
2023-01-15T20:02:22.301Z,97626.69
2023-01-15T20:04:28.269Z,97618.41
2023-01-15T20:06:33.264Z,97613.44
2023-01-15T20:08:42.065Z,97620.06
2023-01-15T20:10:49.694Z,97614.19
2023-01-15T20:13:07.811Z,97615.06
2023-01-15T20:15:13.976Z,97611.78
2023-01-15T20:17:19.393Z,97610.09
2023-01-15T20:19:24.243Z,97603.50
2023-01-15T20:21:29.138Z,97601.88
2023-01-15T20:23:35.911Z,97601.88
2023-01-15T20:25:47.204Z,97595.22
2023-01-15T20:27:52.059Z,97593.38
2023-01-15T20:29:57.124Z,97595.06
2023-01-15T20:32:02.031Z,97590.06
2023-01-15T20:34:06.935Z,97578.50
2023-01-15T20:36:12.609Z,97581.81
2023-01-15T20:38:19.006Z,97581.09
2023-01-15T20:40:26.475Z,97578.53
2023-01-15T20:42:48.317Z,97580.19
2023-01-15T20:44:53.776Z,97577.66
2023-01-15T20:46:58.942Z,97584.22
2023-01-15T20:49:16.299Z,97566.75
2023-01-15T20:51:21.194Z,97564.25
2023-01-15T20:53:26.020Z,97568.53
2023-01-15T20:55:45.654Z,97577.66
2023-01-15T20:58:02.138Z,97578.53
2023-01-15T21:00:11.579Z,97585.16
2023-01-15T21:02:16.839Z,97575.19
2023-01-15T21:04:21.754Z,97576.84
2023-01-15T21:06:27.754Z,97570.22
2023-01-15T21:08:33.512Z,97569.28
2023-01-15T21:10:39.142Z,97565.16
2023-01-15T21:12:44.471Z,97570.94
2023-01-15T21:14:51.937Z,97567.47
2023-01-15T21:16:56.811Z,97559.19
2023-01-15T21:19:04.409Z,97558.19
2023-01-15T21:21:12.737Z,97552.41
2023-01-15T21:23:17.682Z,97550.78
2023-01-15T21:25:22.741Z,97538.25
2023-01-15T21:27:28.188Z,97542.56
2023-01-15T21:29:33.681Z,97535.09
2023-01-15T21:31:41.185Z,97534.38
2023-01-15T21:33:46.035Z,97533.63
2023-01-15T21:35:50.982Z,97525.34
2023-01-15T21:37:55.870Z,97532.97
2023-01-15T21:40:00.750Z,97533.75
2023-01-15T21:42:18.077Z,97530.47
2023-01-15T21:44:35.985Z,97532.31
2023-01-15T21:46:43.488Z,97534.09
2023-01-15T21:48:48.454Z,97520.19
2023-01-15T21:50:53.325Z,97512.09
2023-01-15T21:53:01.033Z,97511.41
2023-01-15T21:55:07.384Z,97511.63
2023-01-15T21:57:13.390Z,97506.75
2023-01-15T21:59:19.621Z,97498.56
2023-01-15T22:01:26.718Z,97507.63
2023-01-15T22:03:34.318Z,97502.63
2023-01-15T22:05:39.386Z,97503.41
2023-01-15T22:07:44.280Z,97503.47
2023-01-15T22:09:49.754Z,97499.31
2023-01-15T22:11:54.983Z,97485.13
2023-01-15T22:14:00.241Z,97481.72
2023-01-15T22:16:06.353Z,97476.69
2023-01-15T22:18:11.199Z,97479.94
2023-01-15T22:20:19.711Z,97484.06
2023-01-15T22:22:30.460Z,97478.31
2023-01-15T22:24:37.421Z,97473.38
2023-01-15T22:26:43.495Z,97468.38
2023-01-15T22:28:48.929Z,97468.38
2023-01-15T22:30:53.884Z,97475.03
2023-01-15T22:33:00.558Z,97475.03
2023-01-15T22:35:05.602Z,97468.47
2023-01-15T22:37:15.866Z,97465.06
2023-01-15T22:39:21.355Z,97458.44
2023-01-15T22:41:38.627Z,97456.84
2023-01-15T22:43:43.598Z,97453.53
2023-01-15T22:45:48.828Z,97449.50
2023-01-15T22:47:54.100Z,97451.97
2023-01-15T22:49:59.505Z,97446.06
2023-01-15T22:52:04.374Z,97442.75
2023-01-15T22:54:13.064Z,97447.66
2023-01-15T22:56:17.914Z,97435.31
2023-01-15T22:58:23.231Z,97424.41
2023-01-15T23:00:28.118Z,97423.66
2023-01-15T23:02:45.484Z,97412.97
2023-01-15T23:04:51.387Z,97407.22
2023-01-15T23:06:56.701Z,97397.19
2023-01-15T23:09:03.239Z,97389.00
2023-01-15T23:11:16.544Z,97382.25
2023-01-15T23:13:21.407Z,97380.63
2023-01-15T23:15:26.835Z,97375.66
2023-01-15T23:17:32.718Z,97377.94
2023-01-15T23:19:37.854Z,97371.28
2023-01-15T23:21:43.937Z,97368.75
2023-01-15T23:23:49.496Z,97367.25
2023-01-15T23:25:54.722Z,97366.44
2023-01-15T23:28:02.593Z,97363.16
2023-01-15T23:30:09.244Z,97349.78
2023-01-15T23:32:14.117Z,97357.28
2023-01-15T23:34:19.410Z,97355.50
2023-01-15T23:36:24.529Z,97341.50
2023-01-15T23:38:29.948Z,97330.91
2023-01-15T23:40:35.561Z,97330.91
2023-01-15T23:42:52.911Z,97325.75
2023-01-15T23:45:13.634Z,97325.63
2023-01-15T23:47:19.275Z,97323.16
2023-01-15T23:49:24.125Z,97320.66
2023-01-15T23:51:29.694Z,97307.50
2023-01-15T23:53:34.879Z,97305.94
2023-01-15T23:55:40.124Z,97305.06
2023-01-15T23:57:45.541Z,97309.13
2023-01-15T23:59:50.410Z,97301.75
